sensor_id;sensor_type;location;lat;lon;timestamp;P1;durP1;ratioP1;P2;durP2;ratioP2
36747;SDS011;22716;51.556;5.080;2023-05-13T00:01:19;11.77;;;6.33;;
36747;SDS011;22716;51.556;5.080;2023-05-13T00:03:48;9.80;;;7.07;;
36747;SDS011;22716;51.556;5.080;2023-05-13T00:06:17;7.50;;;6.80;;
36747;SDS011;22716;51.556;5.080;2023-05-13T00:08:49;7.23;;;6.00;;
36747;SDS011;22716;51.556;5.080;2023-05-13T00:11:18;11.47;;;7.23;;
36747;SDS011;22716;51.556;5.080;2023-05-13T00:13:47;9.30;;;6.90;;
36747;SDS011;22716;51.556;5.080;2023-05-13T00:16:16;10.20;;;6.43;;
36747;SDS011;22716;51.556;5.080;2023-05-13T00:18:48;8.40;;;5.97;;
36747;SDS011;22716;51.556;5.080;2023-05-13T00:21:18;8.60;;;6.33;;
36747;SDS011;22716;51.556;5.080;2023-05-13T00:23:50;9.00;;;6.63;;
36747;SDS011;22716;51.556;5.080;2023-05-13T00:26:19;11.97;;;5.67;;
36747;SDS011;22716;51.556;5.080;2023-05-13T00:28:51;6.87;;;6.10;;
36747;SDS011;22716;51.556;5.080;2023-05-13T00:31:20;10.03;;;6.77;;
36747;SDS011;22716;51.556;5.080;2023-05-13T00:33:49;7.83;;;6.20;;
36747;SDS011;22716;51.556;5.080;2023-05-13T00:36:18;6.47;;;5.87;;
36747;SDS011;22716;51.556;5.080;2023-05-13T00:38:49;6.87;;;6.17;;
36747;SDS011;22716;51.556;5.080;2023-05-13T00:41:18;11.37;;;6.13;;
36747;SDS011;22716;51.556;5.080;2023-05-13T00:43:48;8.63;;;5.87;;
36747;SDS011;22716;51.556;5.080;2023-05-13T00:46:21;8.23;;;6.50;;
36747;SDS011;22716;51.556;5.080;2023-05-13T00:48:50;8.37;;;6.40;;
36747;SDS011;22716;51.556;5.080;2023-05-13T00:51:20;8.57;;;6.30;;
36747;SDS011;22716;51.556;5.080;2023-05-13T00:53:52;9.67;;;6.17;;
36747;SDS011;22716;51.556;5.080;2023-05-13T00:56:21;14.87;;;6.33;;
36747;SDS011;22716;51.556;5.080;2023-05-13T00:58:50;7.43;;;5.80;;
36747;SDS011;22716;51.556;5.080;2023-05-13T01:01:21;8.87;;;6.07;;
36747;SDS011;22716;51.556;5.080;2023-05-13T01:03:59;8.10;;;5.60;;
36747;SDS011;22716;51.556;5.080;2023-05-13T01:06:44;6.40;;;5.60;;
36747;SDS011;22716;51.556;5.080;2023-05-13T01:09:24;6.47;;;5.87;;
36747;SDS011;22716;51.556;5.080;2023-05-13T01:12:02;9.23;;;5.37;;
36747;SDS011;22716;51.556;5.080;2023-05-13T01:14:36;9.57;;;7.13;;
36747;SDS011;22716;51.556;5.080;2023-05-13T01:19:43;9.70;;;6.00;;
36747;SDS011;22716;51.556;5.080;2023-05-13T01:22:18;10.03;;;6.10;;
36747;SDS011;22716;51.556;5.080;2023-05-13T01:24:47;7.83;;;5.37;;
36747;SDS011;22716;51.556;5.080;2023-05-13T01:27:17;8.27;;;5.77;;
36747;SDS011;22716;51.556;5.080;2023-05-13T01:29:46;7.23;;;5.33;;
36747;SDS011;22716;51.556;5.080;2023-05-13T01:32:16;6.77;;;5.43;;
36747;SDS011;22716;51.556;5.080;2023-05-13T01:34:47;6.77;;;5.33;;
36747;SDS011;22716;51.556;5.080;2023-05-13T01:37:21;7.30;;;5.33;;
36747;SDS011;22716;51.556;5.080;2023-05-13T01:39:50;7.73;;;5.20;;
36747;SDS011;22716;51.556;5.080;2023-05-13T01:42:21;6.83;;;5.10;;
36747;SDS011;22716;51.556;5.080;2023-05-13T01:44:51;12.07;;;4.90;;
36747;SDS011;22716;51.556;5.080;2023-05-13T01:47:20;8.00;;;5.63;;
36747;SDS011;22716;51.556;5.080;2023-05-13T01:49:49;7.57;;;5.23;;
36747;SDS011;22716;51.556;5.080;2023-05-13T01:52:21;5.13;;;4.63;;
36747;SDS011;22716;51.556;5.080;2023-05-13T01:54:50;6.83;;;4.77;;
36747;SDS011;22716;51.556;5.080;2023-05-13T01:57:19;7.40;;;5.03;;
36747;SDS011;22716;51.556;5.080;2023-05-13T01:59:48;7.10;;;4.30;;
36747;SDS011;22716;51.556;5.080;2023-05-13T02:02:17;5.33;;;4.83;;
36747;SDS011;22716;51.556;5.080;2023-05-13T02:04:46;7.87;;;5.23;;
36747;SDS011;22716;51.556;5.080;2023-05-13T02:07:14;5.93;;;4.57;;
36747;SDS011;22716;51.556;5.080;2023-05-13T02:09:47;5.93;;;4.53;;
36747;SDS011;22716;51.556;5.080;2023-05-13T02:12:22;4.77;;;3.50;;
36747;SDS011;22716;51.556;5.080;2023-05-13T02:14:51;9.13;;;5.23;;
36747;SDS011;22716;51.556;5.080;2023-05-13T02:17:20;8.43;;;5.07;;
36747;SDS011;22716;51.556;5.080;2023-05-13T02:19:50;6.63;;;4.97;;
36747;SDS011;22716;51.556;5.080;2023-05-13T02:22:18;5.70;;;4.00;;
36747;SDS011;22716;51.556;5.080;2023-05-13T02:24:50;7.50;;;5.13;;
36747;SDS011;22716;51.556;5.080;2023-05-13T02:27:19;6.57;;;4.67;;
36747;SDS011;22716;51.556;5.080;2023-05-13T02:29:48;7.20;;;4.40;;
36747;SDS011;22716;51.556;5.080;2023-05-13T02:32:17;6.43;;;4.40;;
36747;SDS011;22716;51.556;5.080;2023-05-13T02:34:47;11.87;;;5.70;;
36747;SDS011;22716;51.556;5.080;2023-05-13T02:37:16;4.87;;;4.00;;
36747;SDS011;22716;51.556;5.080;2023-05-13T02:39:45;8.77;;;5.10;;
36747;SDS011;22716;51.556;5.080;2023-05-13T02:42:17;5.90;;;4.50;;
36747;SDS011;22716;51.556;5.080;2023-05-13T02:44:46;6.90;;;4.53;;
36747;SDS011;22716;51.556;5.080;2023-05-13T02:47:15;8.37;;;4.63;;
36747;SDS011;22716;51.556;5.080;2023-05-13T02:49:44;5.53;;;4.60;;
36747;SDS011;22716;51.556;5.080;2023-05-13T02:52:13;6.33;;;4.80;;
36747;SDS011;22716;51.556;5.080;2023-05-13T02:54:42;7.27;;;4.80;;
36747;SDS011;22716;51.556;5.080;2023-05-13T02:57:11;6.30;;;4.40;;
36747;SDS011;22716;51.556;5.080;2023-05-13T02:59:43;5.67;;;4.43;;
36747;SDS011;22716;51.556;5.080;2023-05-13T03:02:12;7.87;;;5.07;;
36747;SDS011;22716;51.556;5.080;2023-05-13T03:04:41;7.03;;;5.67;;
36747;SDS011;22716;51.556;5.080;2023-05-13T03:07:10;11.33;;;4.87;;
36747;SDS011;22716;51.556;5.080;2023-05-13T03:09:38;6.57;;;5.27;;
36747;SDS011;22716;51.556;5.080;2023-05-13T03:12:07;6.70;;;5.60;;
36747;SDS011;22716;51.556;5.080;2023-05-13T03:14:37;8.90;;;5.13;;
36747;SDS011;22716;51.556;5.080;2023-05-13T03:17:11;12.27;;;5.80;;
36747;SDS011;22716;51.556;5.080;2023-05-13T03:19:40;8.63;;;6.50;;
36747;SDS011;22716;51.556;5.080;2023-05-13T03:22:09;7.13;;;6.37;;
36747;SDS011;22716;51.556;5.080;2023-05-13T03:24:38;8.50;;;4.93;;
36747;SDS011;22716;51.556;5.080;2023-05-13T03:27:07;9.83;;;6.57;;
36747;SDS011;22716;51.556;5.080;2023-05-13T03:29:36;6.37;;;5.23;;
36747;SDS011;22716;51.556;5.080;2023-05-13T03:32:06;6.40;;;5.33;;
36747;SDS011;22716;51.556;5.080;2023-05-13T03:34:37;12.73;;;5.27;;
36747;SDS011;22716;51.556;5.080;2023-05-13T03:37:06;8.50;;;5.80;;
36747;SDS011;22716;51.556;5.080;2023-05-13T03:39:36;7.07;;;5.37;;
36747;SDS011;22716;51.556;5.080;2023-05-13T03:42:05;9.23;;;5.40;;
36747;SDS011;22716;51.556;5.080;2023-05-13T03:44:34;8.90;;;5.20;;
36747;SDS011;22716;51.556;5.080;2023-05-13T03:47:04;7.00;;;5.23;;
36747;SDS011;22716;51.556;5.080;2023-05-13T03:49:33;8.47;;;5.03;;
36747;SDS011;22716;51.556;5.080;2023-05-13T03:52:05;9.27;;;5.47;;
36747;SDS011;22716;51.556;5.080;2023-05-13T03:54:35;6.83;;;5.50;;
36747;SDS011;22716;51.556;5.080;2023-05-13T03:57:04;8.87;;;6.10;;
36747;SDS011;22716;51.556;5.080;2023-05-13T03:59:34;7.10;;;5.57;;
36747;SDS011;22716;51.556;5.080;2023-05-13T04:02:04;10.07;;;6.00;;
36747;SDS011;22716;51.556;5.080;2023-05-13T04:04:33;7.00;;;6.03;;
36747;SDS011;22716;51.556;5.080;2023-05-13T04:07:05;8.43;;;5.60;;
36747;SDS011;22716;51.556;5.080;2023-05-13T04:09:34;7.00;;;5.33;;
36747;SDS011;22716;51.556;5.080;2023-05-13T04:12:03;8.77;;;6.13;;
36747;SDS011;22716;51.556;5.080;2023-05-13T04:14:32;7.93;;;4.70;;
36747;SDS011;22716;51.556;5.080;2023-05-13T04:17:02;8.57;;;5.97;;
36747;SDS011;22716;51.556;5.080;2023-05-13T04:19:31;8.27;;;5.57;;
36747;SDS011;22716;51.556;5.080;2023-05-13T04:22:00;10.00;;;5.80;;
36747;SDS011;22716;51.556;5.080;2023-05-13T04:24:32;6.00;;;5.17;;
36747;SDS011;22716;51.556;5.080;2023-05-13T04:27:01;8.50;;;5.10;;
36747;SDS011;22716;51.556;5.080;2023-05-13T04:29:31;11.07;;;6.27;;
36747;SDS011;22716;51.556;5.080;2023-05-13T04:32:00;9.90;;;5.40;;
36747;SDS011;22716;51.556;5.080;2023-05-13T04:34:29;8.07;;;5.50;;
36747;SDS011;22716;51.556;5.080;2023-05-13T04:37:00;11.03;;;6.30;;
36747;SDS011;22716;51.556;5.080;2023-05-13T04:39:32;12.33;;;5.60;;
36747;SDS011;22716;51.556;5.080;2023-05-13T04:42:00;19.60;;;5.13;;
36747;SDS011;22716;51.556;5.080;2023-05-13T04:44:30;11.40;;;5.37;;
36747;SDS011;22716;51.556;5.080;2023-05-13T04:46:59;7.20;;;5.83;;
36747;SDS011;22716;51.556;5.080;2023-05-13T04:49:29;7.17;;;5.70;;
36747;SDS011;22716;51.556;5.080;2023-05-13T04:51:59;12.03;;;6.30;;
36747;SDS011;22716;51.556;5.080;2023-05-13T04:54:33;9.90;;;6.03;;
36747;SDS011;22716;51.556;5.080;2023-05-13T04:57:04;9.77;;;6.03;;
36747;SDS011;22716;51.556;5.080;2023-05-13T04:59:33;7.30;;;5.40;;
36747;SDS011;22716;51.556;5.080;2023-05-13T05:02:02;8.57;;;5.63;;
36747;SDS011;22716;51.556;5.080;2023-05-13T05:04:31;20.33;;;10.70;;
36747;SDS011;22716;51.556;5.080;2023-05-13T05:07:01;14.93;;;7.90;;
36747;SDS011;22716;51.556;5.080;2023-05-13T05:09:29;9.03;;;5.80;;
36747;SDS011;22716;51.556;5.080;2023-05-13T05:12:01;6.57;;;5.50;;
36747;SDS011;22716;51.556;5.080;2023-05-13T05:14:31;10.70;;;5.87;;
36747;SDS011;22716;51.556;5.080;2023-05-13T05:17:03;7.80;;;5.47;;
36747;SDS011;22716;51.556;5.080;2023-05-13T05:19:33;12.23;;;6.00;;
36747;SDS011;22716;51.556;5.080;2023-05-13T05:22:02;10.57;;;6.40;;
36747;SDS011;22716;51.556;5.080;2023-05-13T05:24:34;7.10;;;6.40;;
36747;SDS011;22716;51.556;5.080;2023-05-13T05:27:04;14.37;;;6.50;;
36747;SDS011;22716;51.556;5.080;2023-05-13T05:29:33;10.40;;;7.37;;
36747;SDS011;22716;51.556;5.080;2023-05-13T05:32:03;9.00;;;6.20;;
36747;SDS011;22716;51.556;5.080;2023-05-13T05:34:33;11.30;;;6.90;;
36747;SDS011;22716;51.556;5.080;2023-05-13T05:37:03;14.23;;;8.67;;
36747;SDS011;22716;51.556;5.080;2023-05-13T05:39:35;7.40;;;6.30;;
36747;SDS011;22716;51.556;5.080;2023-05-13T05:42:06;9.97;;;6.10;;
36747;SDS011;22716;51.556;5.080;2023-05-13T05:44:35;10.03;;;6.23;;
36747;SDS011;22716;51.556;5.080;2023-05-13T05:47:04;7.27;;;6.20;;
36747;SDS011;22716;51.556;5.080;2023-05-13T05:49:33;10.80;;;6.87;;
36747;SDS011;22716;51.556;5.080;2023-05-13T05:52:02;9.40;;;6.43;;
36747;SDS011;22716;51.556;5.080;2023-05-13T05:54:37;11.53;;;6.40;;
36747;SDS011;22716;51.556;5.080;2023-05-13T05:57:06;10.33;;;6.43;;
36747;SDS011;22716;51.556;5.080;2023-05-13T05:59:36;7.03;;;6.33;;
36747;SDS011;22716;51.556;5.080;2023-05-13T06:02:06;9.10;;;6.37;;
36747;SDS011;22716;51.556;5.080;2023-05-13T06:04:35;13.70;;;6.33;;
36747;SDS011;22716;51.556;5.080;2023-05-13T06:07:06;8.80;;;6.47;;
36747;SDS011;22716;51.556;5.080;2023-05-13T06:09:38;6.37;;;5.73;;
36747;SDS011;22716;51.556;5.080;2023-05-13T06:12:07;12.20;;;7.23;;
36747;SDS011;22716;51.556;5.080;2023-05-13T06:14:37;9.73;;;7.43;;
36747;SDS011;22716;51.556;5.080;2023-05-13T06:17:06;9.37;;;7.30;;
36747;SDS011;22716;51.556;5.080;2023-05-13T06:19:39;7.80;;;5.80;;
36747;SDS011;22716;51.556;5.080;2023-05-13T06:22:09;7.93;;;5.90;;
36747;SDS011;22716;51.556;5.080;2023-05-13T06:24:41;12.27;;;7.43;;
36747;SDS011;22716;51.556;5.080;2023-05-13T06:27:10;9.87;;;7.20;;
36747;SDS011;22716;51.556;5.080;2023-05-13T06:29:40;8.47;;;6.57;;
36747;SDS011;22716;51.556;5.080;2023-05-13T06:32:09;9.53;;;7.57;;
36747;SDS011;22716;51.556;5.080;2023-05-13T06:34:38;11.07;;;6.93;;
36747;SDS011;22716;51.556;5.080;2023-05-13T06:37:10;10.63;;;7.10;;
36747;SDS011;22716;51.556;5.080;2023-05-13T06:39:42;10.67;;;7.57;;
36747;SDS011;22716;51.556;5.080;2023-05-13T06:42:11;9.10;;;6.20;;
36747;SDS011;22716;51.556;5.080;2023-05-13T06:44:41;10.00;;;6.97;;
36747;SDS011;22716;51.556;5.080;2023-05-13T06:47:10;12.30;;;7.07;;
36747;SDS011;22716;51.556;5.080;2023-05-13T06:49:40;11.40;;;7.27;;
36747;SDS011;22716;51.556;5.080;2023-05-13T06:52:09;11.70;;;6.37;;
36747;SDS011;22716;51.556;5.080;2023-05-13T06:54:38;9.53;;;6.80;;
36747;SDS011;22716;51.556;5.080;2023-05-13T06:57:10;15.27;;;6.67;;
36747;SDS011;22716;51.556;5.080;2023-05-13T06:59:40;13.60;;;6.63;;
36747;SDS011;22716;51.556;5.080;2023-05-13T07:02:09;10.10;;;6.87;;
36747;SDS011;22716;51.556;5.080;2023-05-13T07:04:37;15.87;;;6.80;;
36747;SDS011;22716;51.556;5.080;2023-05-13T07:07:06;8.23;;;6.40;;
36747;SDS011;22716;51.556;5.080;2023-05-13T07:09:35;9.30;;;7.23;;
36747;SDS011;22716;51.556;5.080;2023-05-13T07:12:07;9.97;;;7.07;;
36747;SDS011;22716;51.556;5.080;2023-05-13T07:14:37;10.23;;;7.40;;
36747;SDS011;22716;51.556;5.080;2023-05-13T07:17:06;10.13;;;8.37;;
36747;SDS011;22716;51.556;5.080;2023-05-13T07:19:34;12.03;;;8.03;;
36747;SDS011;22716;51.556;5.080;2023-05-13T07:22:04;11.90;;;7.57;;
36747;SDS011;22716;51.556;5.080;2023-05-13T07:24:33;9.17;;;6.80;;
36747;SDS011;22716;51.556;5.080;2023-05-13T07:27:02;13.00;;;8.33;;
36747;SDS011;22716;51.556;5.080;2023-05-13T07:29:34;10.47;;;6.90;;
36747;SDS011;22716;51.556;5.080;2023-05-13T07:32:04;8.30;;;6.77;;
36747;SDS011;22716;51.556;5.080;2023-05-13T07:34:35;10.47;;;7.57;;
36747;SDS011;22716;51.556;5.080;2023-05-13T07:37:04;8.37;;;7.47;;
36747;SDS011;22716;51.556;5.080;2023-05-13T07:39:33;9.10;;;7.10;;
36747;SDS011;22716;51.556;5.080;2023-05-13T07:42:03;9.73;;;6.83;;
36747;SDS011;22716;51.556;5.080;2023-05-13T07:44:35;9.37;;;7.53;;
36747;SDS011;22716;51.556;5.080;2023-05-13T07:47:04;9.27;;;6.67;;
36747;SDS011;22716;51.556;5.080;2023-05-13T07:49:38;11.97;;;6.50;;
36747;SDS011;22716;51.556;5.080;2023-05-13T07:52:10;8.73;;;6.37;;
36747;SDS011;22716;51.556;5.080;2023-05-13T07:54:39;8.93;;;6.60;;
36747;SDS011;22716;51.556;5.080;2023-05-13T07:57:09;9.87;;;7.57;;
36747;SDS011;22716;51.556;5.080;2023-05-13T07:59:40;8.13;;;6.87;;
36747;SDS011;22716;51.556;5.080;2023-05-13T08:02:09;16.47;;;7.97;;
36747;SDS011;22716;51.556;5.080;2023-05-13T08:04:39;10.00;;;7.03;;
36747;SDS011;22716;51.556;5.080;2023-05-13T08:07:08;10.30;;;7.67;;
36747;SDS011;22716;51.556;5.080;2023-05-13T08:09:38;8.80;;;7.27;;
36747;SDS011;22716;51.556;5.080;2023-05-13T08:12:08;9.63;;;7.03;;
36747;SDS011;22716;51.556;5.080;2023-05-13T08:14:40;9.17;;;6.90;;
36747;SDS011;22716;51.556;5.080;2023-05-13T08:17:15;11.67;;;6.70;;
36747;SDS011;22716;51.556;5.080;2023-05-13T08:19:44;7.63;;;6.37;;
36747;SDS011;22716;51.556;5.080;2023-05-13T08:22:14;11.83;;;7.07;;
36747;SDS011;22716;51.556;5.080;2023-05-13T08:24:42;10.87;;;6.90;;
36747;SDS011;22716;51.556;5.080;2023-05-13T08:27:12;12.87;;;6.17;;
36747;SDS011;22716;51.556;5.080;2023-05-13T08:29:44;9.63;;;7.07;;
36747;SDS011;22716;51.556;5.080;2023-05-13T08:32:13;7.93;;;6.27;;
36747;SDS011;22716;51.556;5.080;2023-05-13T08:34:43;11.13;;;6.53;;
36747;SDS011;22716;51.556;5.080;2023-05-13T08:37:12;8.13;;;6.77;;
36747;SDS011;22716;51.556;5.080;2023-05-13T08:39:41;12.30;;;6.90;;
36747;SDS011;22716;51.556;5.080;2023-05-13T08:42:10;11.50;;;7.47;;
36747;SDS011;22716;51.556;5.080;2023-05-13T08:44:46;8.77;;;6.73;;
36747;SDS011;22716;51.556;5.080;2023-05-13T08:47:22;11.03;;;7.50;;
36747;SDS011;22716;51.556;5.080;2023-05-13T08:49:57;12.77;;;8.53;;
36747;SDS011;22716;51.556;5.080;2023-05-13T08:52:26;8.93;;;5.70;;
36747;SDS011;22716;51.556;5.080;2023-05-13T08:54:56;13.43;;;6.83;;
36747;SDS011;22716;51.556;5.080;2023-05-13T08:57:27;9.03;;;6.50;;
36747;SDS011;22716;51.556;5.080;2023-05-13T08:59:59;9.13;;;6.87;;
36747;SDS011;22716;51.556;5.080;2023-05-13T09:02:27;11.10;;;7.13;;
36747;SDS011;22716;51.556;5.080;2023-05-13T09:04:58;10.33;;;5.90;;
36747;SDS011;22716;51.556;5.080;2023-05-13T09:07:30;9.53;;;6.50;;
36747;SDS011;22716;51.556;5.080;2023-05-13T09:10:00;12.17;;;6.53;;
36747;SDS011;22716;51.556;5.080;2023-05-13T09:12:42;9.00;;;6.60;;
36747;SDS011;22716;51.556;5.080;2023-05-13T09:15:15;7.63;;;5.90;;
36747;SDS011;22716;51.556;5.080;2023-05-13T09:17:46;8.10;;;6.40;;
36747;SDS011;22716;51.556;5.080;2023-05-13T09:20:17;8.70;;;5.80;;
36747;SDS011;22716;51.556;5.080;2023-05-13T09:22:50;6.90;;;5.93;;
36747;SDS011;22716;51.556;5.080;2023-05-13T09:25:21;6.80;;;5.90;;
36747;SDS011;22716;51.556;5.080;2023-05-13T09:27:52;9.30;;;6.47;;
36747;SDS011;22716;51.556;5.080;2023-05-13T09:30:25;10.13;;;6.63;;
36747;SDS011;22716;51.556;5.080;2023-05-13T09:33:05;8.43;;;6.23;;
36747;SDS011;22716;51.556;5.080;2023-05-13T09:35:49;13.70;;;6.87;;
36747;SDS011;22716;51.556;5.080;2023-05-13T09:38:21;9.57;;;5.83;;
36747;SDS011;22716;51.556;5.080;2023-05-13T09:40:54;9.02;;;5.43;;
36747;SDS011;22716;51.556;5.080;2023-05-13T09:43:24;8.67;;;5.90;;
36747;SDS011;22716;51.556;5.080;2023-05-13T09:45:59;9.88;;;5.97;;
36747;SDS011;22716;51.556;5.080;2023-05-13T09:48:30;15.32;;;6.28;;
36747;SDS011;22716;51.556;5.080;2023-05-13T09:51:02;8.77;;;5.53;;
36747;SDS011;22716;51.556;5.080;2023-05-13T09:53:33;7.67;;;5.53;;
36747;SDS011;22716;51.556;5.080;2023-05-13T09:56:02;13.30;;;6.07;;
36747;SDS011;22716;51.556;5.080;2023-05-13T09:58:32;7.45;;;5.05;;
36747;SDS011;22716;51.556;5.080;2023-05-13T10:01:03;6.68;;;4.43;;
36747;SDS011;22716;51.556;5.080;2023-05-13T10:03:33;6.00;;;4.90;;
36747;SDS011;22716;51.556;5.080;2023-05-13T10:06:03;9.00;;;5.32;;
36747;SDS011;22716;51.556;5.080;2023-05-13T10:08:33;6.57;;;4.85;;
36747;SDS011;22716;51.556;5.080;2023-05-13T10:11:04;10.93;;;4.90;;
36747;SDS011;22716;51.556;5.080;2023-05-13T10:13:35;8.25;;;4.70;;
36747;SDS011;22716;51.556;5.080;2023-05-13T10:16:09;8.88;;;5.00;;
36747;SDS011;22716;51.556;5.080;2023-05-13T10:18:39;5.67;;;4.60;;
36747;SDS011;22716;51.556;5.080;2023-05-13T10:21:08;8.80;;;4.75;;
36747;SDS011;22716;51.556;5.080;2023-05-13T10:23:39;6.28;;;4.03;;
36747;SDS011;22716;51.556;5.080;2023-05-13T10:26:10;7.07;;;4.57;;
36747;SDS011;22716;51.556;5.080;2023-05-13T10:28:39;12.35;;;4.78;;
36747;SDS011;22716;51.556;5.080;2023-05-13T10:31:12;11.03;;;4.70;;
36747;SDS011;22716;51.556;5.080;2023-05-13T10:33:41;10.98;;;5.15;;
36747;SDS011;22716;51.556;5.080;2023-05-13T10:39:25;6.28;;;4.90;;
36747;SDS011;22716;51.556;5.080;2023-05-13T10:42:20;7.20;;;4.97;;
36747;SDS011;22716;51.556;5.080;2023-05-13T10:45:09;8.37;;;4.90;;
36747;SDS011;22716;51.556;5.080;2023-05-13T10:47:41;7.13;;;5.28;;
36747;SDS011;22716;51.556;5.080;2023-05-13T10:50:20;8.63;;;4.83;;
36747;SDS011;22716;51.556;5.080;2023-05-13T10:52:54;6.13;;;3.65;;
36747;SDS011;22716;51.556;5.080;2023-05-13T10:55:25;7.20;;;4.97;;
36747;SDS011;22716;51.556;5.080;2023-05-13T10:58:08;5.47;;;4.22;;
36747;SDS011;22716;51.556;5.080;2023-05-13T11:00:39;4.57;;;3.78;;
36747;SDS011;22716;51.556;5.080;2023-05-13T11:03:13;11.20;;;5.00;;
36747;SDS011;22716;51.556;5.080;2023-05-13T11:05:59;7.80;;;4.43;;
36747;SDS011;22716;51.556;5.080;2023-05-13T11:08:44;8.77;;;4.78;;
36747;SDS011;22716;51.556;5.080;2023-05-13T11:11:17;9.98;;;4.88;;
36747;SDS011;22716;51.556;5.080;2023-05-13T11:14:02;5.00;;;3.23;;
36747;SDS011;22716;51.556;5.080;2023-05-13T11:16:35;5.88;;;3.75;;
36747;SDS011;22716;51.556;5.080;2023-05-13T11:19:18;10.60;;;4.60;;
36747;SDS011;22716;51.556;5.080;2023-05-13T11:21:50;7.93;;;4.35;;
36747;SDS011;22716;51.556;5.080;2023-05-13T11:24:21;4.75;;;3.95;;
36747;SDS011;22716;51.556;5.080;2023-05-13T11:26:52;6.10;;;4.25;;
36747;SDS011;22716;51.556;5.080;2023-05-13T11:29:27;8.60;;;4.90;;
36747;SDS011;22716;51.556;5.080;2023-05-13T11:31:58;12.50;;;4.88;;
36747;SDS011;22716;51.556;5.080;2023-05-13T11:34:31;7.75;;;5.20;;
36747;SDS011;22716;51.556;5.080;2023-05-13T11:37:08;7.05;;;4.50;;
36747;SDS011;22716;51.556;5.080;2023-05-13T11:39:38;8.18;;;4.60;;
36747;SDS011;22716;51.556;5.080;2023-05-13T11:42:09;5.35;;;4.40;;
36747;SDS011;22716;51.556;5.080;2023-05-13T11:44:45;13.43;;;5.00;;
36747;SDS011;22716;51.556;5.080;2023-05-13T11:47:18;6.45;;;4.30;;
36747;SDS011;22716;51.556;5.080;2023-05-13T11:49:57;12.40;;;4.20;;
36747;SDS011;22716;51.556;5.080;2023-05-13T11:52:26;7.50;;;3.88;;
36747;SDS011;22716;51.556;5.080;2023-05-13T11:54:56;10.55;;;4.38;;
36747;SDS011;22716;51.556;5.080;2023-05-13T11:57:25;8.48;;;4.38;;
36747;SDS011;22716;51.556;5.080;2023-05-13T11:59:57;7.25;;;5.22;;
36747;SDS011;22716;51.556;5.080;2023-05-13T12:02:29;4.85;;;3.25;;
36747;SDS011;22716;51.556;5.080;2023-05-13T12:05:04;10.30;;;3.58;;
36747;SDS011;22716;51.556;5.080;2023-05-13T12:07:36;6.53;;;3.55;;
36747;SDS011;22716;51.556;5.080;2023-05-13T12:10:06;7.10;;;2.92;;
36747;SDS011;22716;51.556;5.080;2023-05-13T12:12:36;6.90;;;3.50;;
36747;SDS011;22716;51.556;5.080;2023-05-13T12:15:09;7.88;;;4.07;;
36747;SDS011;22716;51.556;5.080;2023-05-13T12:17:39;8.18;;;5.07;;
36747;SDS011;22716;51.556;5.080;2023-05-13T12:20:13;5.10;;;3.60;;
36747;SDS011;22716;51.556;5.080;2023-05-13T12:22:50;7.03;;;3.75;;
36747;SDS011;22716;51.556;5.080;2023-05-13T12:25:31;9.60;;;3.63;;
36747;SDS011;22716;51.556;5.080;2023-05-13T12:28:08;3.80;;;3.00;;
36747;SDS011;22716;51.556;5.080;2023-05-13T12:30:41;7.07;;;3.30;;
36747;SDS011;22716;51.556;5.080;2023-05-13T12:33:12;5.45;;;4.25;;
36747;SDS011;22716;51.556;5.080;2023-05-13T12:35:45;9.60;;;3.50;;
36747;SDS011;22716;51.556;5.080;2023-05-13T12:38:17;9.60;;;3.45;;
36747;SDS011;22716;51.556;5.080;2023-05-13T12:40:48;4.72;;;3.95;;
36747;SDS011;22716;51.556;5.080;2023-05-13T12:43:19;7.72;;;3.22;;
36747;SDS011;22716;51.556;5.080;2023-05-13T12:45:52;5.50;;;3.55;;
36747;SDS011;22716;51.556;5.080;2023-05-13T12:48:22;7.03;;;3.90;;
36747;SDS011;22716;51.556;5.080;2023-05-13T12:50:55;5.30;;;3.33;;
36747;SDS011;22716;51.556;5.080;2023-05-13T12:53:24;4.60;;;3.58;;
36747;SDS011;22716;51.556;5.080;2023-05-13T12:55:54;5.32;;;3.67;;
36747;SDS011;22716;51.556;5.080;2023-05-13T12:58:22;7.43;;;3.70;;
36747;SDS011;22716;51.556;5.080;2023-05-13T13:00:51;7.15;;;3.63;;
36747;SDS011;22716;51.556;5.080;2023-05-13T13:03:20;11.80;;;3.17;;
36747;SDS011;22716;51.556;5.080;2023-05-13T13:05:50;6.50;;;4.05;;
36747;SDS011;22716;51.556;5.080;2023-05-13T13:08:21;5.00;;;3.63;;
36747;SDS011;22716;51.556;5.080;2023-05-13T13:13:56;7.95;;;3.28;;
36747;SDS011;22716;51.556;5.080;2023-05-13T13:16:26;8.40;;;4.70;;
36747;SDS011;22716;51.556;5.080;2023-05-13T13:18:55;7.18;;;3.72;;
36747;SDS011;22716;51.556;5.080;2023-05-13T13:22:30;4.28;;;3.70;;
36747;SDS011;22716;51.556;5.080;2023-05-13T13:24:58;7.07;;;4.05;;
36747;SDS011;22716;51.556;5.080;2023-05-13T13:27:27;3.67;;;3.20;;
36747;SDS011;22716;51.556;5.080;2023-05-13T13:29:56;6.72;;;2.97;;
36747;SDS011;22716;51.556;5.080;2023-05-13T13:32:24;5.40;;;3.58;;
36747;SDS011;22716;51.556;5.080;2023-05-13T13:34:53;6.22;;;3.95;;
36747;SDS011;22716;51.556;5.080;2023-05-13T13:37:23;6.90;;;3.63;;
36747;SDS011;22716;51.556;5.080;2023-05-13T13:39:55;4.68;;;3.15;;
36747;SDS011;22716;51.556;5.080;2023-05-13T13:42:23;10.88;;;2.80;;
36747;SDS011;22716;51.556;5.080;2023-05-13T13:44:52;3.80;;;3.10;;
36747;SDS011;22716;51.556;5.080;2023-05-13T13:47:21;7.60;;;2.97;;
36747;SDS011;22716;51.556;5.080;2023-05-13T13:51:11;5.75;;;2.55;;
36747;SDS011;22716;51.556;5.080;2023-05-13T13:55:48;4.45;;;2.88;;
36747;SDS011;22716;51.556;5.080;2023-05-13T13:58:17;6.97;;;2.60;;
36747;SDS011;22716;51.556;5.080;2023-05-13T14:00:46;7.53;;;3.30;;
36747;SDS011;22716;51.556;5.080;2023-05-13T14:03:15;4.55;;;2.15;;
36747;SDS011;22716;51.556;5.080;2023-05-13T14:05:43;3.45;;;2.70;;
36747;SDS011;22716;51.556;5.080;2023-05-13T14:08:12;3.80;;;2.38;;
36747;SDS011;22716;51.556;5.080;2023-05-13T14:10:40;3.92;;;2.85;;
36747;SDS011;22716;51.556;5.080;2023-05-13T14:13:12;5.18;;;2.53;;
36747;SDS011;22716;51.556;5.080;2023-05-13T14:15:40;4.00;;;2.58;;
36747;SDS011;22716;51.556;5.080;2023-05-13T14:18:10;3.72;;;2.65;;
36747;SDS011;22716;51.556;5.080;2023-05-13T14:20:39;8.10;;;3.00;;
36747;SDS011;22716;51.556;5.080;2023-05-13T14:23:07;7.22;;;4.05;;
36747;SDS011;22716;51.556;5.080;2023-05-13T14:25:36;9.68;;;5.03;;
36747;SDS011;22716;51.556;5.080;2023-05-13T14:28:04;10.70;;;3.95;;
36747;SDS011;22716;51.556;5.080;2023-05-13T14:30:35;15.10;;;6.32;;
36747;SDS011;22716;51.556;5.080;2023-05-13T14:35:28;5.68;;;3.33;;
36747;SDS011;22716;51.556;5.080;2023-05-13T14:37:57;10.48;;;3.97;;
36747;SDS011;22716;51.556;5.080;2023-05-13T14:40:25;6.53;;;4.03;;
36747;SDS011;22716;51.556;5.080;2023-05-13T14:42:55;7.32;;;3.42;;
36747;SDS011;22716;51.556;5.080;2023-05-13T14:45:23;7.53;;;3.30;;
36747;SDS011;22716;51.556;5.080;2023-05-13T14:47:52;8.65;;;3.70;;
36747;SDS011;22716;51.556;5.080;2023-05-13T14:50:21;8.07;;;3.53;;
36747;SDS011;22716;51.556;5.080;2023-05-13T14:52:52;12.50;;;3.58;;
36747;SDS011;22716;51.556;5.080;2023-05-13T14:55:21;6.25;;;3.85;;
36747;SDS011;22716;51.556;5.080;2023-05-13T14:57:49;8.68;;;3.33;;
36747;SDS011;22716;51.556;5.080;2023-05-13T15:00:18;7.45;;;3.60;;
36747;SDS011;22716;51.556;5.080;2023-05-13T15:02:47;4.68;;;3.10;;
36747;SDS011;22716;51.556;5.080;2023-05-13T15:05:16;9.88;;;4.07;;
36747;SDS011;22716;51.556;5.080;2023-05-13T15:07:45;3.13;;;2.67;;
36747;SDS011;22716;51.556;5.080;2023-05-13T15:10:17;8.52;;;3.80;;
36747;SDS011;22716;51.556;5.080;2023-05-13T15:12:45;4.30;;;3.33;;
36747;SDS011;22716;51.556;5.080;2023-05-13T15:15:14;6.13;;;3.10;;
36747;SDS011;22716;51.556;5.080;2023-05-13T15:17:43;5.10;;;3.42;;
36747;SDS011;22716;51.556;5.080;2023-05-13T15:20:13;10.20;;;5.75;;